Time;durP1;ratioP1;P1;durP2;ratioP2;P2;SDS_P1;SDS_P2;PMS_P1;PMS_P2;Temp;Humidity;BMP_temperature;BMP_pressure;BME280_temperature;BME280_humidity;BME280_pressure;Samples;Min_cycle;Max_cycle;Signal;HPM_P1;HPM_P2
2023/10/25 00:01:03;;;;;;;8.03;3.93;;;;;;;18.69;51.64;100188.97;5072671;28;20806;-68
2023/10/25 00:03:28;;;;;;;7.23;3.10;;;;;;;18.50;52.53;100182.97;5091808;28;20012;-68
2023/10/25 00:05:54;;;;;;;6.63;2.63;;;;;;;18.22;52.92;100181.78;5097445;28;20039;-69
2023/10/25 00:08:19;;;;;;;4.93;3.27;;;;;;;18.03;52.99;100173.94;5073580;28;20027;-68
2023/10/25 00:10:44;;;;;;;3.70;3.03;;;;;;;17.93;52.66;100168.28;5074718;28;20031;-68
2023/10/25 00:13:10;;;;;;;9.93;4.60;;;;;;;18.14;52.21;100171.59;5071748;28;20023;-68
2023/10/25 00:15:35;;;;;;;6.97;3.20;;;;;;;17.39;53.92;100169.16;5073118;28;20066;-68
2023/10/25 00:18:00;;;;;;;6.07;3.30;;;;;;;17.22;54.58;100166.47;5092440;28;20027;-68
2023/10/25 00:20:26;;;;;;;9.90;3.63;;;;;;;17.75;53.00;100162.94;5087919;28;20475;-68
2023/10/25 00:22:51;;;;;;;7.73;3.07;;;;;;;17.01;55.79;100179.75;5077876;28;20024;-68
2023/10/25 00:25:17;;;;;;;8.20;3.23;;;;;;;16.63;57.16;100175.28;5072724;28;20043;-68
2023/10/25 00:27:42;;;;;;;4.13;2.87;;;;;;;16.61;57.15;100173.66;5091144;28;20043;-68
2023/10/25 00:30:08;;;;;;;5.77;3.10;;;;;;;16.63;57.29;100169.16;5075358;28;20203;-68
2023/10/25 00:32:33;;;;;;;5.40;2.63;;;;;;;16.66;57.72;100174.28;5076702;28;20028;-68
2023/10/25 00:34:59;;;;;;;3.00;2.47;;;;;;;16.65;57.15;100177.88;5076373;28;20024;-68
2023/10/25 00:37:24;;;;;;;8.17;2.50;;;;;;;16.84;56.74;100180.50;5075995;28;20080;-68
2023/10/25 00:39:49;;;;;;;4.57;2.50;;;;;;;16.50;57.71;100183.81;5082155;28;20122;-68
2023/10/25 00:42:15;;;;;;;7.50;3.07;;;;;;;16.19;58.34;100180.78;5077632;28;20075;-68
2023/10/25 00:44:40;;;;;;;10.47;2.40;;;;;;;16.84;57.07;100171.72;5081296;28;20060;-68
2023/10/25 00:47:06;;;;;;;6.63;2.70;;;;;;;15.64;60.91;100173.41;5078726;28;20071;-68
2023/10/25 00:49:31;;;;;;;5.97;3.13;;;;;;;16.19;57.92;100174.66;5080818;28;20039;-68
2023/10/25 00:51:57;;;;;;;11.50;2.70;;;;;;;15.86;61.60;100159.38;5091938;28;20032;-67
2023/10/25 00:54:23;;;;;;;2.87;2.47;;;;;;;15.70;61.38;100152.09;5089205;28;20031;-68
2023/10/25 00:56:49;;;;;;;5.33;2.60;;;;;;;15.37;63.22;100160.47;5088939;28;20023;-68
2023/10/25 00:59:15;;;;;;;16.33;3.30;;;;;;;16.09;61.02;100153.97;5101259;28;20115;-68
2023/10/25 01:01:41;;;;;;;4.57;2.80;;;;;;;15.92;60.85;100156.47;5091548;28;20391;-68
2023/10/25 01:04:07;;;;;;;5.90;2.97;;;;;;;16.83;57.94;100149.78;5076905;28;20032;-68
2023/10/25 01:06:32;;;;;;;5.07;2.63;;;;;;;16.71;57.44;100143.28;5076143;28;20039;-69
2023/10/25 01:08:58;;;;;;;8.53;3.60;;;;;;;16.31;60.15;100153.00;5082972;28;20532;-68
2023/10/25 01:11:25;;;;;;;4.77;3.03;;;;;;;16.75;58.42;100139.56;5109362;28;20024;-68
2023/10/25 01:13:50;;;;;;;5.50;2.90;;;;;;;16.40;58.87;100139.41;5083412;28;20119;-68
2023/10/25 01:16:16;;;;;;;5.83;2.90;;;;;;;16.51;58.68;100138.91;5075179;28;20165;-69
2023/10/25 01:18:41;;;;;;;7.97;3.37;;;;;;;16.33;59.06;100134.47;5096088;28;20035;-69
2023/10/25 01:21:07;;;;;;;5.83;2.77;;;;;;;16.82;57.48;100136.66;5075079;28;20023;-68
2023/10/25 01:23:32;;;;;;;5.27;3.20;;;;;;;16.73;57.81;100136.16;5077672;28;20024;-68
2023/10/25 01:25:57;;;;;;;7.00;2.80;;;;;;;16.44;58.26;100138.34;5081060;28;20020;-68
2023/10/25 01:28:23;;;;;;;7.33;3.27;;;;;;;16.56;58.79;100130.81;5077629;28;20028;-68
2023/10/25 01:30:48;;;;;;;8.43;2.70;;;;;;;16.84;57.98;100125.06;5093597;28;20020;-68
2023/10/25 01:33:14;;;;;;;7.17;3.40;;;;;;;16.51;58.74;100132.78;5074642;28;20123;-67
2023/10/25 01:35:39;;;;;;;7.53;2.80;;;;;;;16.33;58.91;100130.06;5076937;28;20037;-68
2023/10/25 01:38:04;;;;;;;4.27;3.00;;;;;;;16.20;58.69;100127.13;5074707;28;20036;-68
2023/10/25 01:40:30;;;;;;;8.20;3.57;;;;;;;16.98;56.59;100119.19;5103228;28;20020;-68
2023/10/25 01:42:55;;;;;;;8.33;3.47;;;;;;;17.42;54.67;100115.28;5093680;28;20059;-67
2023/10/25 01:45:24;;;;;;;10.73;3.33;;;;;;;16.39;57.86;100115.72;5093657;28;20024;-68
2023/10/25 01:47:50;;;;;;;8.67;2.97;;;;;;;17.06;56.26;100114.41;5104703;28;20140;-68
2023/10/25 01:50:16;;;;;;;4.93;3.07;;;;;;;17.20;55.81;100110.22;5092854;28;20866;-68
2023/10/25 01:52:41;;;;;;;6.03;3.30;;;;;;;17.63;53.85;100102.78;5093361;28;20035;-68
2023/10/25 01:55:07;;;;;;;7.13;3.60;;;;;;;17.60;53.70;100092.38;5095161;28;20487;-68
2023/10/25 01:57:33;;;;;;;7.83;3.30;;;;;;;17.03;55.58;100098.69;5075789;28;20032;-68
2023/10/25 01:59:58;;;;;;;6.10;3.23;;;;;;;17.59;53.78;100096.78;5075342;28;20024;-67
2023/10/25 02:02:24;;;;;;;9.30;4.47;;;;;;;17.69;53.38;100105.09;5081785;28;20028;-68
2023/10/25 02:04:49;;;;;;;7.23;3.47;;;;;;;17.71;53.43;100100.63;5074879;28;20051;-67
2023/10/25 02:07:14;;;;;;;8.90;3.37;;;;;;;17.44;54.02;100095.78;5104019;28;20301;-68
2023/10/25 02:09:40;;;;;;;7.37;5.43;;;;;;;17.70;53.42;100093.63;5078815;28;20029;-68
2023/10/25 02:12:05;;;;;;;6.57;3.47;;;;;;;17.57;53.82;100088.13;5094859;28;21460;-68
2023/10/25 02:14:33;;;;;;;8.17;3.97;;;;;;;17.49;53.60;100078.84;5080919;28;20042;-68
2023/10/25 02:16:59;;;;;;;7.10;3.60;;;;;;;17.09;54.72;100072.00;5096449;28;20043;-68
2023/10/25 02:19:24;;;;;;;5.77;3.50;;;;;;;16.62;55.64;100072.47;5091962;28;20028;-68
2023/10/25 02:21:49;;;;;;;10.43;3.47;;;;;;;16.83;55.86;100080.28;5080181;28;20023;-68
2023/10/25 02:24:15;;;;;;;10.97;3.60;;;;;;;17.13;54.63;100083.25;5090892;28;20026;-68
2023/10/25 02:26:41;;;;;;;4.87;3.30;;;;;;;17.23;53.77;100073.13;5073687;28;20114;-68
2023/10/25 02:29:07;;;;;;;8.73;3.67;;;;;;;17.38;53.75;100079.38;5084478;28;21015;-68
2023/10/25 02:31:34;;;;;;;11.00;5.07;;;;;;;17.57;53.63;100072.25;5083175;28;20020;-67
2023/10/25 02:33:59;;;;;;;8.50;3.27;;;;;;;17.77;52.08;100071.22;5084799;28;20089;-68
2023/10/25 02:36:25;;;;;;;11.10;4.83;;;;;;;17.44;53.19;100069.38;5090758;28;20071;-68
2023/10/25 02:38:51;;;;;;;12.47;4.67;;;;;;;17.54;52.87;100071.53;5075377;28;20027;-68
2023/10/25 02:41:16;;;;;;;14.87;4.67;;;;;;;17.13;54.24;100065.63;5080701;28;20023;-68
2023/10/25 02:43:42;;;;;;;10.87;4.80;;;;;;;17.03;54.33;100067.00;5074627;28;20032;-68
2023/10/25 02:46:09;;;;;;;12.07;5.37;;;;;;;17.33;53.53;100063.78;5087222;28;20023;-67
2023/10/25 02:48:37;;;;;;;9.80;4.10;;;;;;;17.04;54.44;100062.59;5073691;28;20059;-68
2023/10/25 02:51:03;;;;;;;8.37;4.40;;;;;;;17.18;53.85;100061.91;5091704;28;20104;-68
2023/10/25 02:53:28;;;;;;;9.80;3.63;;;;;;;17.18;53.75;100060.13;5073451;28;20114;-68
2023/10/25 02:56:04;;;;;;;7.47;3.70;;;;;;;17.05;54.06;100054.59;5080994;28;20486;-68
2023/10/25 02:58:30;;;;;;;6.70;3.80;;;;;;;17.12;54.25;100050.72;5091518;28;20115;-68
2023/10/25 03:00:56;;;;;;;8.90;4.10;;;;;;;16.53;55.39;100049.19;5072692;28;20031;-68
2023/10/25 03:03:25;;;;;;;8.27;4.63;;;;;;;16.64;55.81;100049.50;5105452;28;20399;-67
2023/10/25 03:05:51;;;;;;;16.70;4.10;;;;;;;16.61;55.57;100047.03;5091735;28;20134;-68
2023/10/25 03:08:16;;;;;;;9.87;3.90;;;;;;;16.84;54.92;100050.34;5076799;28;20134;-68
2023/10/25 03:10:42;;;;;;;9.37;4.00;;;;;;;17.29;53.96;100038.47;5076975;28;20486;-68
2023/10/25 03:13:07;;;;;;;13.27;4.27;;;;;;;17.57;52.87;100043.19;5103551;28;20467;-68
2023/10/25 03:15:32;;;;;;;6.07;3.50;;;;;;;17.70;52.65;100045.19;5073023;28;20039;-68
2023/10/25 03:17:58;;;;;;;4.53;3.17;;;;;;;17.66;52.71;100033.91;5073294;28;20035;-68
2023/10/25 03:20:24;;;;;;;5.87;4.00;;;;;;;17.37;53.50;100044.22;5075453;28;20447;-68
2023/10/25 03:22:49;;;;;;;8.23;3.27;;;;;;;17.49;53.76;100041.84;5086162;28;20130;-68
2023/10/25 03:25:14;;;;;;;12.23;3.83;;;;;;;17.45;53.99;100042.03;5083494;28;20038;-67
2023/10/25 03:27:40;;;;;;;7.93;4.57;;;;;;;17.59;53.36;100027.25;5102994;28;20355;-68
2023/10/25 03:30:06;;;;;;;8.17;3.53;;;;;;;17.72;53.12;100017.75;5072186;28;20036;-68
2023/10/25 03:32:31;;;;;;;10.87;3.43;;;;;;;17.80;52.39;100020.84;5082194;28;20509;-68
2023/10/25 03:34:57;;;;;;;8.13;4.13;;;;;;;17.80;52.40;100022.63;5089202;28;20032;-68
2023/10/25 03:37:23;;;;;;;8.67;4.00;;;;;;;17.76;52.41;100021.94;5088118;28;20447;-68
2023/10/25 03:39:49;;;;;;;7.97;3.97;;;;;;;17.36;53.04;100028.44;5073859;28;20027;-68
2023/10/25 03:42:14;;;;;;;8.17;3.93;;;;;;;17.23;53.39;100023.78;5101664;28;20050;-68
2023/10/25 03:44:39;;;;;;;6.10;4.00;;;;;;;17.53;53.41;100024.91;5109773;28;20403;-68
2023/10/25 03:47:05;;;;;;;6.97;3.40;;;;;;;17.60;52.71;100015.75;5090936;28;20027;-68
2023/10/25 03:49:30;;;;;;;5.53;3.63;;;;;;;17.65;52.76;100003.13;5072988;28;20026;-68
2023/10/25 03:51:56;;;;;;;7.97;3.93;;;;;;;17.73;52.32;100008.88;5089223;28;20051;-68
2023/10/25 03:54:22;;;;;;;6.33;3.80;;;;;;;17.49;53.48;100004.88;5073272;28;20030;-68
2023/10/25 03:56:47;;;;;;;9.03;3.70;;;;;;;17.75;52.52;99996.44;5088845;28;20471;-68
2023/10/25 03:59:13;;;;;;;7.33;3.83;;;;;;;17.89;52.09;99998.34;5073783;28;20118;-68
2023/10/25 04:01:38;;;;;;;9.30;3.70;;;;;;;17.59;53.20;99992.91;5074139;28;20012;-68
2023/10/25 04:04:04;;;;;;;8.33;3.53;;;;;;;17.51;53.89;99988.00;5089877;28;20031;-68
2023/10/25 04:06:30;;;;;;;9.27;4.03;;;;;;;17.81;52.73;99993.47;5081341;28;20034;-68
2023/10/25 04:08:55;;;;;;;5.77;3.73;;;;;;;17.46;53.72;99985.63;5094774;28;20402;-68
2023/10/25 04:11:20;;;;;;;6.30;3.57;;;;;;;17.53;53.91;99980.00;5072670;28;20138;-67
2023/10/25 04:13:46;;;;;;;8.40;3.53;;;;;;;17.32;54.32;99982.00;5111294;28;20023;-68
2023/10/25 04:16:11;;;;;;;5.17;3.00;;;;;;;16.89;55.36;99971.81;5087093;28;20418;-68
2023/10/25 04:18:38;;;;;;;8.97;4.07;;;;;;;17.42;54.36;99983.19;5108405;28;20047;-68
2023/10/25 04:21:09;;;;;;;7.20;3.73;;;;;;;17.67;54.32;99980.16;5083255;28;20031;-68
2023/10/25 04:23:34;;;;;;;4.23;2.93;;;;;;;18.09;53.02;99977.94;5090940;28;20486;-68
2023/10/25 04:26:04;;;;;;;5.93;4.03;;;;;;;18.08;52.80;99966.50;5071590;28;20028;-68
2023/10/25 04:28:30;;;;;;;8.63;3.73;;;;;;;18.10;52.96;99969.91;5077021;28;20153;-68
2023/10/25 04:30:55;;;;;;;9.40;4.80;;;;;;;18.33;52.19;99970.44;5090471;28;20500;-68
2023/10/25 04:33:20;;;;;;;6.43;3.33;;;;;;;18.00;52.42;99973.13;5073189;28;20115;-68
2023/10/25 04:35:46;;;;;;;8.07;3.90;;;;;;;18.20;52.59;99972.06;5074424;28;20531;-69
2023/10/25 04:38:11;;;;;;;7.13;3.50;;;;;;;17.60;53.69;99970.84;5077170;28;20262;-68
2023/10/25 04:40:36;;;;;;;6.47;3.70;;;;;;;18.22;52.29;99967.53;5076345;28;20023;-68
2023/10/25 04:43:02;;;;;;;7.03;3.43;;;;;;;17.92;52.87;99960.34;5097870;28;20043;-68
2023/10/25 04:45:29;;;;;;;7.83;3.27;;;;;;;18.00;52.71;99950.22;5085842;28;20051;-68
2023/10/25 04:47:54;;;;;;;4.70;3.50;;;;;;;17.88;53.47;99942.94;5094832;28;20023;-68
2023/10/25 04:50:21;;;;;;;6.07;3.13;;;;;;;18.28;52.49;99946.88;5076788;28;20078;-68
2023/10/25 04:52:47;;;;;;;5.63;3.43;;;;;;;17.74;53.22;99957.72;5078834;28;20072;-68
2023/10/25 04:55:12;;;;;;;9.17;4.17;;;;;;;17.50;54.20;99948.47;5075523;28;20434;-68
2023/10/25 04:57:38;;;;;;;4.87;2.70;;;;;;;17.54;53.36;99942.09;5098626;28;20078;-68
2023/10/25 05:00:07;;;;;;;6.93;3.10;;;;;;;17.74;53.48;99947.16;5082358;28;20452;-68
2023/10/25 05:02:33;;;;;;;4.87;3.20;;;;;;;17.21;55.05;99941.13;5086609;28;20081;-68
2023/10/25 05:04:58;;;;;;;7.63;3.50;;;;;;;17.37;54.65;99943.84;5079394;28;20429;-68
2023/10/25 05:07:23;;;;;;;4.77;2.90;;;;;;;17.62;54.21;99927.53;5095505;28;20082;-68
2023/10/25 05:09:49;;;;;;;4.07;2.90;;;;;;;17.88;53.08;99932.34;5100145;28;20475;-68
2023/10/25 05:12:17;;;;;;;5.93;2.83;;;;;;;17.73;53.66;99934.88;5080334;28;20102;-68
2023/10/25 05:14:43;;;;;;;7.97;3.20;;;;;;;18.07;52.80;99919.84;5090322;28;20558;-68
2023/10/25 05:17:09;;;;;;;4.03;3.07;;;;;;;17.97;52.85;99916.03;5076514;28;20115;-67
2023/10/25 05:19:35;;;;;;;8.87;2.70;;;;;;;17.93;52.90;99917.13;5096084;28;20036;-68
2023/10/25 05:22:10;;;;;;;3.33;2.63;;;;;;;17.13;55.39;99927.47;5086315;28;20383;-68
2023/10/25 05:24:35;;;;;;;5.60;2.77;;;;;;;17.63;53.83;99918.66;5087406;28;20054;-68
2023/10/25 05:27:01;;;;;;;6.63;3.83;;;;;;;17.50;54.32;99914.13;5097567;28;20097;-68
2023/10/25 05:29:27;;;;;;;5.93;2.80;;;;;;;17.99;53.79;99910.66;5077277;28;20031;-68
2023/10/25 05:31:55;;;;;;;8.90;2.97;;;;;;;17.97;53.22;99905.44;5098226;28;20348;-68
2023/10/25 05:34:21;;;;;;;6.70;3.33;;;;;;;17.85;53.42;99906.94;5083035;28;20444;-68
2023/10/25 05:36:46;;;;;;;11.07;3.43;;;;;;;18.02;53.53;99906.03;5094849;28;20040;-68
2023/10/25 05:39:12;;;;;;;5.93;3.23;;;;;;;17.86;53.80;99898.06;5096778;28;20043;-68
2023/10/25 05:41:40;;;;;;;4.13;2.97;;;;;;;17.55;54.35;99897.09;5101662;28;20051;-68
2023/10/25 05:44:15;;;;;;;4.63;3.13;;;;;;;18.10;53.17;99889.75;5075003;28;20479;-68
2023/10/25 05:46:41;;;;;;;7.37;3.43;;;;;;;18.18;52.48;99886.66;5092039;28;20122;-68
2023/10/25 05:49:07;;;;;;;7.40;3.03;;;;;;;18.37;52.65;99892.59;5093482;28;20110;-68
2023/10/25 05:51:33;;;;;;;4.63;2.87;;;;;;;18.16;53.45;99886.72;5091617;28;20482;-68
2023/10/25 05:54:00;;;;;;;12.00;4.03;;;;;;;18.56;52.68;99886.25;5094883;28;20210;-68
2023/10/25 05:56:28;;;;;;;7.07;2.77;;;;;;;18.55;52.36;99884.56;5111767;28;20027;-68
2023/10/25 05:58:54;;;;;;;7.50;2.37;;;;;;;18.58;52.57;99884.38;5092097;28;20096;-68
2023/10/25 06:01:33;;;;;;;3.03;2.30;;;;;;;18.63;52.54;99869.09;5092667;28;20031;-68
2023/10/25 06:03:59;;;;;;;5.10;3.07;;;;;;;18.47;52.90;99859.38;5086818;28;20024;-68
2023/10/25 06:06:26;;;;;;;5.00;2.53;;;;;;;18.86;51.93;99858.91;5078848;28;20036;-68
2023/10/25 06:08:52;;;;;;;7.60;2.80;;;;;;;18.66;52.35;99868.91;5080049;28;20036;-68
2023/10/25 06:11:17;;;;;;;5.80;3.00;;;;;;;18.45;52.89;99869.22;5107283;28;20119;-68
2023/10/25 06:13:43;;;;;;;6.10;2.80;;;;;;;18.55;52.50;99868.69;5077766;28;20439;-68
2023/10/25 06:16:09;;;;;;;4.03;2.63;;;;;;;17.89;54.32;99870.63;5075234;28;20024;-68
2023/10/25 06:18:34;;;;;;;12.20;2.90;;;;;;;18.62;52.79;99875.31;5108424;28;20030;-68
2023/10/25 06:20:59;;;;;;;6.93;2.80;;;;;;;18.51;53.07;99872.44;5093186;28;20028;-68
2023/10/25 06:23:25;;;;;;;3.73;2.53;;;;;;;18.60;52.31;99861.28;5109657;28;20062;-68
2023/10/25 06:25:50;;;;;;;8.63;2.90;;;;;;;18.69;52.83;99859.91;5106908;28;20361;-68
2023/10/25 06:28:15;;;;;;;7.30;2.83;;;;;;;18.63;52.96;99863.78;5091864;28;20471;-68
2023/10/25 06:30:41;;;;;;;6.17;2.77;;;;;;;18.70;52.77;99861.59;5075100;28;20067;-68
2023/10/25 06:33:07;;;;;;;3.53;2.60;;;;;;;18.86;52.42;99861.56;5077784;28;20039;-68
2023/10/25 06:35:33;;;;;;;5.63;3.90;;;;;;;18.56;52.95;99859.78;5073348;28;20032;-68
2023/10/25 06:37:58;;;;;;;3.90;2.53;;;;;;;18.89;52.06;99853.44;5104717;28;20030;-68
2023/10/25 06:40:24;;;;;;;6.60;2.90;;;;;;;18.58;52.98;99847.31;5091844;28;20463;-68
2023/10/25 06:42:51;;;;;;;4.93;2.63;;;;;;;18.08;54.00;99844.88;5083370;28;20411;-68
2023/10/25 06:45:17;;;;;;;5.53;2.77;;;;;;;18.39;54.03;99836.97;5094244;28;20034;-68
2023/10/25 06:47:43;;;;;;;4.33;2.20;;;;;;;18.70;52.91;99845.72;5112474;28;20110;-68
2023/10/25 06:50:11;;;;;;;7.30;2.77;;;;;;;18.73;52.71;99835.81;5076726;28;20032;-68
2023/10/25 06:52:37;;;;;;;7.33;2.80;;;;;;;18.69;53.09;99838.75;5073737;28;20063;-68
2023/10/25 06:55:03;;;;;;;6.03;2.80;;;;;;;18.56;53.43;99833.31;5083386;28;20131;-68
2023/10/25 06:57:29;;;;;;;4.00;2.73;;;;;;;18.35;53.44;99825.69;5093455;28;20062;-68
2023/10/25 06:59:54;;;;;;;6.93;3.13;;;;;;;18.49;53.32;99832.81;5088559;28;20463;-68
2023/10/25 07:02:36;;;;;;;4.73;3.07;;;;;;;18.30;53.51;99827.78;5074086;28;20019;-69
2023/10/25 07:05:10;;;;;;;8.30;3.33;;;;;;;18.55;53.68;99826.34;5075161;28;20063;-68
2023/10/25 07:07:36;;;;;;;2.97;2.50;;;;;;;18.51;53.35;99825.66;5070869;28;20058;-68
2023/10/25 07:10:03;;;;;;;7.10;2.70;;;;;;;18.64;52.89;99825.78;5092261;28;20034;-69
2023/10/25 07:12:32;;;;;;;3.77;2.87;;;;;;;18.44;53.26;99830.47;5087422;28;20031;-68
2023/10/25 07:14:57;;;;;;;4.37;2.80;;;;;;;18.44;53.03;99825.16;5083462;28;20032;-68
2023/10/25 07:17:24;;;;;;;9.53;3.57;;;;;;;18.84;52.07;99819.28;5075694;28;20027;-69
2023/10/25 07:19:49;;;;;;;6.53;2.97;;;;;;;18.66;53.09;99813.31;5081586;28;20413;-69
2023/10/25 07:22:15;;;;;;;7.07;2.80;;;;;;;18.68;52.84;99810.56;5107467;28;20038;-69
2023/10/25 07:24:40;;;;;;;8.80;3.23;;;;;;;18.62;53.38;99817.09;5077194;28;20028;-69
2023/10/25 07:27:05;;;;;;;5.93;2.97;;;;;;;18.52;53.06;99814.13;5083656;28;20035;-68
2023/10/25 07:29:31;;;;;;;7.00;2.93;;;;;;;18.60;53.17;99816.31;5094048;28;20028;-68
2023/10/25 07:31:56;;;;;;;4.80;2.70;;;;;;;18.69;53.06;99810.47;5073126;28;20028;-68
2023/10/25 07:34:22;;;;;;;6.97;2.90;;;;;;;18.42;53.78;99805.91;5092359;28;20039;-69
2023/10/25 07:36:47;;;;;;;6.33;2.93;;;;;;;18.76;52.98;99803.03;5094372;28;20020;-69
2023/10/25 07:39:15;;;;;;;6.77;3.33;;;;;;;18.17;54.28;99816.19;5090567;28;20032;-69
2023/10/25 07:41:40;;;;;;;7.63;2.80;;;;;;;18.22;55.02;99808.88;5107148;28;20040;-69
2023/10/25 07:44:06;;;;;;;3.83;2.30;;;;;;;18.53;53.62;99807.03;5073271;28;20372;-69
2023/10/25 07:46:31;;;;;;;3.53;2.60;;;;;;;18.17;54.17;99800.34;5088739;28;20435;-69
2023/10/25 07:48:56;;;;;;;4.30;2.60;;;;;;;18.65;53.68;99796.56;5074970;28;20550;-69
2023/10/25 07:51:22;;;;;;;8.70;2.83;;;;;;;18.72;53.60;99797.06;5077382;28;20458;-69
2023/10/25 07:53:47;;;;;;;6.10;3.30;;;;;;;18.53;54.01;99791.16;5078246;28;20035;-69
2023/10/25 07:56:13;;;;;;;4.40;3.20;;;;;;;18.03;55.70;99786.13;5073322;28;20032;-69
2023/10/25 07:58:38;;;;;;;12.97;4.27;;;;;;;18.52;53.94;99786.81;5072648;28;20387;-69
2023/10/25 08:01:03;;;;;;;5.60;2.67;;;;;;;18.60;53.66;99788.06;5072323;28;20038;-69
2023/10/25 08:03:29;;;;;;;9.27;3.17;;;;;;;18.46;54.10;99780.97;5088977;28;20110;-69
2023/10/25 08:05:55;;;;;;;3.27;2.57;;;;;;;18.52;53.92;99778.88;5081171;28;20084;-68
2023/10/25 08:08:21;;;;;;;4.40;2.70;;;;;;;18.24;55.03;99777.88;5093281;28;20031;-69
2023/10/25 08:10:46;;;;;;;4.30;2.83;;;;;;;18.58;53.89;99783.81;5091786;28;20031;-69
2023/10/25 08:13:11;;;;;;;3.93;2.47;;;;;;;18.75;53.38;99770.41;5092739;28;20109;-69
2023/10/25 08:15:37;;;;;;;3.67;2.30;;;;;;;17.89;55.77;99770.19;5093273;28;20027;-71
2023/10/25 08:18:02;;;;;;;2.90;2.57;;;;;;;18.37;54.28;99770.06;5092133;28;20023;-69
2023/10/25 08:20:28;;;;;;;7.03;2.40;;;;;;;18.60;54.14;99763.38;5091717;28;20065;-69
2023/10/25 08:22:53;;;;;;;4.53;2.30;;;;;;;18.69;53.46;99760.19;5092961;28;20027;-69
2023/10/25 08:25:18;;;;;;;5.23;2.43;;;;;;;18.44;54.96;99772.25;5076366;28;20035;-69
2023/10/25 08:27:44;;;;;;;10.33;2.30;;;;;;;19.01;53.21;99754.72;5073208;28;20028;-69
2023/10/25 08:30:09;;;;;;;4.53;2.43;;;;;;;19.22;52.89;99762.28;5072398;28;20020;-68
2023/10/25 08:32:35;;;;;;;6.57;2.43;;;;;;;18.64;53.76;99772.84;5090558;28;20032;-69
2023/10/25 08:35:01;;;;;;;2.43;1.97;;;;;;;18.65;53.91;99763.97;5081254;28;20475;-69
2023/10/25 08:37:26;;;;;;;8.57;2.20;;;;;;;18.92;53.19;99760.63;5093164;28;20031;-68
2023/10/25 08:39:52;;;;;;;3.63;2.10;;;;;;;18.44;54.67;99761.66;5092255;28;20039;-68
2023/10/25 08:42:18;;;;;;;5.10;2.70;;;;;;;18.80;53.37;99752.44;5092392;28;20044;-68
2023/10/25 08:44:44;;;;;;;2.60;2.03;;;;;;;19.12;53.38;99752.28;5091542;28;20051;-68
2023/10/25 08:47:11;;;;;;;3.27;1.93;;;;;;;18.75;54.40;99759.84;5091758;28;20490;-68
2023/10/25 08:49:37;;;;;;;2.67;1.90;;;;;;;19.17;53.18;99754.63;5111255;28;20027;-68
2023/10/25 08:52:03;;;;;;;2.47;2.27;;;;;;;19.21;53.08;99745.53;5109778;28;20031;-68
2023/10/25 08:54:29;;;;;;;4.07;2.07;;;;;;;19.27;53.06;99745.16;5087587;28;20032;-68
2023/10/25 08:56:55;;;;;;;0.00;0.00;;;;;;;19.31;52.87;99737.88;5110663;28;20031;-69
2023/10/25 08:59:20;;;;;;;0.00;0.00;;;;;;;19.53;52.59;99732.03;5092307;28;20445;-68
2023/10/25 09:01:46;;;;;;;0.23;0.23;;;;;;;19.12;52.90;99720.50;5111039;28;20015;-68
2023/10/25 09:04:12;;;;;;;0.07;0.07;;;;;;;19.22;53.01;99725.19;5090961;28;20027;-68
2023/10/25 09:06:37;;;;;;;0.00;0.00;;;;;;;19.24;53.35;99718.03;5110553;28;20031;-68
2023/10/25 09:09:05;;;;;;;0.00;0.00;;;;;;;19.59;52.48;99720.16;5110779;28;20100;-68
2023/10/25 09:11:42;;;;;;;0.57;0.57;;;;;;;19.46;52.60;99713.03;5111115;28;20019;-68
2023/10/25 09:14:09;;;;;;;0.50;0.50;;;;;;;19.75;51.99;99712.91;5089736;28;20470;-68
2023/10/25 09:16:35;;;;;;;0.00;0.00;;;;;;;19.65;52.11;99706.53;5092741;28;20034;-68
2023/10/25 09:19:05;;;;;;;0.00;0.00;;;;;;;19.86;51.46;99703.44;5110515;28;20024;-68
2023/10/25 09:21:30;;;;;;;0.00;0.00;;;;;;;19.90;51.64;99705.78;5110465;28;20038;-67
2023/10/25 09:23:59;;;;;;;0.00;0.00;;;;;;;19.96;51.42;99699.22;5093482;28;20421;-67
2023/10/25 09:26:24;;;;;;;0.00;0.00;;;;;;;19.37;52.37;99697.75;5094155;28;20523;-68
2023/10/25 09:28:53;;;;;;;0.00;0.00;;;;;;;19.24;53.07;99694.19;5095353;28;20120;-68
2023/10/25 09:31:28;;;;;;;0.20;0.20;;;;;;;19.25;52.75;99687.94;5096156;28;20419;-68
2023/10/25 09:33:53;;;;;;;0.00;0.00;;;;;;;18.93;54.17;99677.56;5095967;28;20048;-67
2023/10/25 09:36:21;;;;;;;0.20;0.20;;;;;;;19.46;52.81;99680.38;5113831;28;20095;-68
2023/10/25 09:38:49;;;;;;;0.10;0.10;;;;;;;18.94;53.76;99687.22;5114435;28;20027;-68
2023/10/25 09:41:19;;;;;;;0.00;0.00;;;;;;;18.64;54.91;99677.56;5094732;28;20019;-67
2023/10/25 09:43:51;;;;;;;0.00;0.00;;;;;;;18.71;54.72;99668.34;5109958;28;20019;-68
2023/10/25 09:46:18;;;;;;;0.03;0.03;;;;;;;17.97;57.77;99678.09;5085654;28;20573;-68
2023/10/25 09:49:04;;;;;;;0.00;0.00;;;;;;;18.35;56.05;99656.41;5095251;28;20070;-68
2023/10/25 09:52:07;;;;;;;0.20;0.20;;;;;;;18.08;56.85;99669.50;5093643;28;20115;-68
2023/10/25 09:54:37;;;;;;;0.10;0.10;;;;;;;18.00;57.78;99667.34;5086902;28;20030;-68
2023/10/25 09:57:04;;;;;;;0.67;0.67;;;;;;;18.12;57.55;99653.38;5076075;28;20032;-68
2023/10/25 09:59:33;;;;;;;0.20;0.20;;;;;;;18.88;56.18;99643.47;5075487;28;20077;-67
2023/10/25 10:02:03;;;;;;;0.10;0.10;;;;;;;18.93;55.52;99645.81;5083593;28;20023;-68
2023/10/25 10:04:47;;;;;;;0.10;0.10;;;;;;;19.10;55.01;99648.22;5094758;28;20057;-67
2023/10/25 10:07:24;;;;;;;0.63;0.47;;;;;;;18.47;56.39;99652.16;5095335;28;20023;-68
2023/10/25 10:10:16;;;;;;;0.00;0.00;;;;;;;18.33;56.60;99653.03;5095053;28;20054;-67
2023/10/25 10:12:41;;;;;;;0.00;0.00;;;;;;;18.13;56.88;99641.88;5113060;28;20035;-68
2023/10/25 10:15:07;;;;;;;2.10;0.73;;;;;;;18.20;57.49;99641.47;5079120;28;20034;-67
2023/10/25 10:17:36;;;;;;;0.10;0.10;;;;;;;17.93;58.77;99647.50;5092610;28;20093;-67
2023/10/25 10:20:05;;;;;;;1.13;0.73;;;;;;;17.83;59.51;99643.66;5085589;28;20039;-68
2023/10/25 10:22:31;;;;;;;0.07;0.07;;;;;;;18.32;57.54;99627.50;5112294;28;20026;-67
2023/10/25 10:25:04;;;;;;;0.00;0.00;;;;;;;18.46;57.00;99630.16;5093929;28;20475;-67
2023/10/25 10:27:42;;;;;;;0.00;0.00;;;;;;;18.63;56.43;99617.69;5095346;28;20023;-67
2023/10/25 10:30:30;;;;;;;0.00;0.00;;;;;;;17.68;59.23;99625.13;5094785;28;20023;-68
2023/10/25 10:32:56;;;;;;;0.00;0.00;;;;;;;18.13;58.79;99615.41;5078598;28;20036;-67
2023/10/25 10:35:22;;;;;;;0.87;0.30;;;;;;;17.90;60.14;99618.53;5093189;28;20360;-67
2023/10/25 10:37:54;;;;;;;0.00;0.00;;;;;;;16.69;64.27;99614.81;5094318;28;20107;-68
2023/10/25 10:40:20;;;;;;;;;;;;;;;17.39;62.17;99610.94;5113419;28;20028;-68
2023/10/25 10:42:45;;;;;;;0.10;0.10;;;;;;;17.97;60.77;99598.78;5113144;28;19919;-68
2023/10/25 10:45:15;;;;;;;0.00;0.00;;;;;;;17.91;60.33;99593.81;5093763;28;20020;-68
2023/10/25 10:47:42;;;;;;;1.03;0.57;;;;;;;18.09;59.44;99592.75;5094909;28;20020;-68
2023/10/25 10:50:20;;;;;;;0.20;0.20;;;;;;;17.78;60.81;99605.13;5076945;28;20493;-67
2023/10/25 10:52:47;;;;;;;0.10;0.10;;;;;;;17.64;61.84;99599.81;5073523;28;20123;-68
2023/10/25 10:55:14;;;;;;;0.00;0.00;;;;;;;17.67;61.09;99594.34;5090721;28;20634;-67
2023/10/25 10:57:40;;;;;;;0.00;0.00;;;;;;;17.45;60.62;99590.31;5092588;28;20020;-68
2023/10/25 11:00:08;;;;;;;0.03;0.03;;;;;;;18.57;58.25;99565.97;5075739;28;20050;-68
2023/10/25 11:02:37;;;;;;;0.00;0.00;;;;;;;18.02;59.27;99580.00;5074221;28;20031;-68
2023/10/25 11:05:06;;;;;;;0.00;0.00;;;;;;;18.39;57.95;99578.56;5073754;28;20052;-68
2023/10/25 11:07:32;;;;;;;0.00;0.00;;;;;;;17.86;60.28;99572.09;5091477;28;20058;-68
2023/10/25 11:09:57;;;;;;;0.20;0.20;;;;;;;18.23;59.22;99556.66;5101963;28;20032;-68
2023/10/25 11:12:24;;;;;;;0.00;0.00;;;;;;;17.63;62.34;99563.78;5100991;28;20446;-67
2023/10/25 11:14:50;;;;;;;0.00;0.00;;;;;;;18.08;60.60;99566.38;5093636;28;20456;-67
2023/10/25 11:17:16;;;;;;;0.20;0.20;;;;;;;17.91;60.89;99567.38;5110000;28;20032;-67
2023/10/25 11:19:46;;;;;;;0.00;0.00;;;;;;;17.60;60.94;99559.50;5089846;28;20379;-67
2023/10/25 11:22:12;;;;;;;0.00;0.00;;;;;;;18.06;61.18;99541.84;5075496;28;20497;-67
2023/10/25 11:24:37;;;;;;;0.00;0.00;;;;;;;18.28;59.93;99544.00;5092037;28;20020;-68
2023/10/25 11:27:04;;;;;;;0.00;0.00;;;;;;;18.15;60.08;99538.63;5084059;28;20443;-68